Time;durP1;ratioP1;P1;durP2;ratioP2;P2;SDS_P1;SDS_P2;PMS_P1;PMS_P2;Temp;Humidity;BMP_temperature;BMP_pressure;BME280_temperature;BME280_humidity;BME280_pressure;Samples;Min_cycle;Max_cycle;Signal;HPM_P1;HPM_P2
2022/10/25 00:01:35;;;;;;;20.55;6.93;;;12.30;99.90;;;;;;4985985;28;20535;-79
2022/10/25 00:04:01;;;;;;;28.35;6.70;;;12.30;99.90;;;;;;4985655;28;20051;-79
2022/10/25 00:06:27;;;;;;;13.20;6.05;;;12.30;99.90;;;;;;4984723;28;20101;-79
2022/10/25 00:08:52;;;;;;;13.65;5.53;;;12.30;99.90;;;;;;4985474;28;20042;-79
2022/10/25 00:11:29;;;;;;;14.77;7.55;;;12.30;99.90;;;;;;4986859;28;20387;-79
2022/10/25 00:13:56;;;;;;;8.40;5.90;;;12.30;99.90;;;;;;4984211;28;20520;-79
2022/10/25 00:16:31;;;;;;;13.93;6.15;;;12.30;99.90;;;;;;4984209;28;20092;-79
2022/10/25 00:18:56;;;;;;;9.55;6.53;;;12.30;99.90;;;;;;4985614;28;20042;-79
2022/10/25 00:21:23;;;;;;;10.85;6.70;;;12.30;99.90;;;;;;4985814;28;20093;-78
2022/10/25 00:23:50;;;;;;;11.43;7.65;;;12.40;99.90;;;;;;4986405;28;20049;-79
2022/10/25 00:26:16;;;;;;;13.05;7.95;;;12.40;99.90;;;;;;4986278;28;20413;-79
2022/10/25 00:28:41;;;;;;;16.60;7.47;;;12.40;99.90;;;;;;4986057;28;20051;-79
2022/10/25 00:31:10;;;;;;;11.82;7.38;;;12.40;99.90;;;;;;4984499;28;20069;-79
2022/10/25 00:33:37;;;;;;;20.10;7.70;;;12.40;99.90;;;;;;4984587;28;20089;-80
2022/10/25 00:36:11;;;;;;;12.18;7.47;;;12.40;99.90;;;;;;4985911;28;20361;-80
2022/10/25 00:38:37;;;;;;;21.38;9.05;;;12.40;99.90;;;;;;4985731;28;20104;-78
2022/10/25 00:41:04;;;;;;;18.10;9.82;;;12.40;99.90;;;;;;4984609;28;20125;-78
2022/10/25 00:43:39;;;;;;;13.35;8.20;;;12.40;99.90;;;;;;4985659;28;20050;-79
2022/10/25 00:46:12;;;;;;;16.77;9.05;;;12.40;99.90;;;;;;4984570;28;20074;-78
2022/10/25 00:48:40;;;;;;;18.80;9.85;;;12.40;99.90;;;;;;4985424;28;20042;-79
2022/10/25 00:51:05;;;;;;;18.23;9.15;;;12.40;99.90;;;;;;4984082;28;20046;-78
2022/10/25 00:53:36;;;;;;;26.20;9.85;;;12.40;99.90;;;;;;4985274;28;20049;-79
2022/10/25 00:56:17;;;;;;;12.95;8.68;;;12.40;99.90;;;;;;4985445;28;20070;-80
2022/10/25 00:58:48;;;;;;;11.15;8.82;;;12.40;99.90;;;;;;4985365;28;20072;-79
2022/10/25 01:01:14;;;;;;;11.32;7.95;;;12.40;99.90;;;;;;4984919;28;20034;-79
2022/10/25 01:03:43;;;;;;;12.13;8.15;;;12.40;99.90;;;;;;4985342;28;20093;-80
2022/10/25 01:06:17;;;;;;;28.55;10.20;;;12.40;99.90;;;;;;4981421;28;20066;-78
2022/10/25 01:08:44;;;;;;;20.48;9.57;;;12.40;99.90;;;;;;5051858;23;20057;-79
2022/10/25 01:11:09;;;;;;;14.43;8.55;;;12.40;99.90;;;;;;5005099;28;20049;-79
2022/10/25 01:13:36;;;;;;;15.85;8.27;;;12.40;99.90;;;;;;4990731;28;20095;-79
2022/10/25 01:16:09;;;;;;;14.65;7.90;;;12.40;99.90;;;;;;5007107;28;20046;-79
2022/10/25 01:18:49;;;;;;;16.65;8.68;;;12.40;99.90;;;;;;4990889;28;20053;-80
2022/10/25 01:21:47;;;;;;;19.15;10.27;;;12.40;99.90;;;;;;4990994;28;20353;-80
2022/10/25 01:24:54;;;;;;;16.02;7.75;;;12.40;99.90;;;;;;5007387;28;20193;-79
2022/10/25 01:27:57;;;;;;;14.88;7.75;;;12.50;99.90;;;;;;4988644;28;20093;-79
2022/10/25 01:30:26;;;;;;;12.98;8.27;;;12.50;99.90;;;;;;4970562;28;20050;-79
2022/10/25 01:33:12;;;;;;;10.20;7.18;;;12.50;99.90;;;;;;4988924;28;20057;-79
2022/10/25 01:35:50;;;;;;;21.08;8.35;;;12.50;99.90;;;;;;4988542;28;20058;-79
2022/10/25 01:38:46;;;;;;;12.27;7.63;;;12.50;99.90;;;;;;4990453;28;20065;-79
2022/10/25 01:41:21;;;;;;;15.05;8.30;;;12.50;99.90;;;;;;4997233;28;20412;-79
2022/10/25 01:44:06;;;;;;;14.13;7.50;;;12.50;99.90;;;;;;5007888;28;20099;-79
2022/10/25 01:46:36;;;;;;;13.93;8.05;;;12.50;99.90;;;;;;4990797;28;20065;-79
2022/10/25 01:49:10;;;;;;;20.55;7.97;;;12.50;99.90;;;;;;5007714;28;20078;-79
2022/10/25 01:51:37;;;;;;;10.90;6.95;;;12.50;99.90;;;;;;5008129;28;20466;-78
2022/10/25 01:54:17;;;;;;;15.40;7.65;;;12.50;99.90;;;;;;5007743;28;20041;-79
2022/10/25 01:57:04;;;;;;;11.63;7.63;;;12.60;99.90;;;;;;5007632;28;20077;-80
2022/10/25 01:59:52;;;;;;;14.25;8.30;;;12.60;99.90;;;;;;5007194;28;20073;-78
2022/10/25 02:02:36;;;;;;;14.23;8.82;;;12.60;99.90;;;;;;4994849;28;20050;-79
2022/10/25 02:05:27;;;;;;;14.68;9.57;;;12.60;99.90;;;;;;5007709;28;20046;-80
2022/10/25 02:08:23;;;;;;;18.83;10.30;;;12.60;99.90;;;;;;4989558;28;20081;-78
2022/10/25 02:11:00;;;;;;;10.90;7.93;;;12.60;99.90;;;;;;4989362;28;20536;-78
2022/10/25 02:13:32;;;;;;;16.30;8.38;;;12.60;99.90;;;;;;5008058;28;20507;-79
2022/10/25 02:16:03;;;;;;;19.83;7.65;;;12.60;99.90;;;;;;5006767;28;20049;-79
2022/10/25 02:18:34;;;;;;;16.05;7.45;;;12.60;99.90;;;;;;5007926;28;20484;-79
2022/10/25 02:21:01;;;;;;;19.95;6.20;;;12.60;99.90;;;;;;5007390;28;20447;-79
2022/10/25 02:23:28;;;;;;;16.15;7.55;;;12.60;99.90;;;;;;4990494;28;20113;-79
2022/10/25 02:25:54;;;;;;;12.10;7.82;;;12.60;99.90;;;;;;5007250;28;20049;-79
2022/10/25 02:28:24;;;;;;;17.27;8.55;;;12.60;99.90;;;;;;5007261;28;20695;-80
2022/10/25 02:30:51;;;;;;;20.40;8.93;;;12.70;99.90;;;;;;5006609;28;20052;-79
2022/10/25 02:33:17;;;;;;;11.82;8.73;;;12.60;99.90;;;;;;4970948;28;20077;-79
2022/10/25 02:35:42;;;;;;;15.20;8.35;;;12.60;99.90;;;;;;4988066;28;20381;-79
2022/10/25 02:38:08;;;;;;;11.77;9.20;;;12.60;99.90;;;;;;4987690;28;20035;-79
2022/10/25 02:40:35;;;;;;;14.50;8.27;;;12.60;99.90;;;;;;4987930;28;20042;-79
2022/10/25 02:43:01;;;;;;;10.23;7.15;;;12.60;99.90;;;;;;4970114;28;20050;-79
2022/10/25 02:45:26;;;;;;;12.48;6.68;;;12.60;99.90;;;;;;4989799;28;20399;-80
2022/10/25 02:47:52;;;;;;;15.35;7.47;;;12.60;99.90;;;;;;5007205;28;20103;-79
2022/10/25 02:50:18;;;;;;;12.65;6.53;;;12.60;99.90;;;;;;4989995;28;20046;-79
2022/10/25 02:52:43;;;;;;;20.83;7.65;;;12.60;99.90;;;;;;4989896;28;20088;-79
2022/10/25 02:55:09;;;;;;;11.30;6.80;;;12.60;99.90;;;;;;5006696;28;20080;-79
2022/10/25 02:57:36;;;;;;;11.38;5.95;;;12.50;99.90;;;;;;5006839;28;20045;-79
2022/10/25 03:00:06;;;;;;;12.20;7.07;;;12.60;99.90;;;;;;4988025;28;20073;-79
2022/10/25 03:02:32;;;;;;;8.48;5.93;;;12.50;99.90;;;;;;5007179;28;20397;-79
2022/10/25 03:04:58;;;;;;;14.70;6.10;;;12.50;99.90;;;;;;5006635;28;20037;-78
2022/10/25 03:07:23;;;;;;;13.57;5.90;;;12.50;99.90;;;;;;5007190;28;20038;-79
2022/10/25 03:09:49;;;;;;;10.82;6.55;;;12.50;99.90;;;;;;4973036;28;20082;-79
2022/10/25 03:12:14;;;;;;;12.05;6.13;;;12.50;99.90;;;;;;5006722;28;20459;-79
2022/10/25 03:14:40;;;;;;;13.93;5.30;;;12.50;99.90;;;;;;4988675;28;20545;-79
2022/10/25 03:17:07;;;;;;;12.88;5.75;;;12.50;99.90;;;;;;5006779;28;20134;-79
2022/10/25 03:19:32;;;;;;;21.10;6.00;;;12.50;99.90;;;;;;5007097;28;20135;-79
2022/10/25 03:21:58;;;;;;;9.05;5.55;;;12.50;99.90;;;;;;5006253;28;20089;-79
2022/10/25 03:24:23;;;;;;;19.15;6.70;;;12.50;99.90;;;;;;5006438;28;20108;-79
2022/10/25 03:26:49;;;;;;;15.18;6.82;;;12.50;99.90;;;;;;5006645;28;20037;-79
2022/10/25 03:29:14;;;;;;;10.77;6.13;;;12.50;99.90;;;;;;5005732;28;20140;-79
2022/10/25 03:31:40;;;;;;;16.33;5.38;;;12.50;99.90;;;;;;5006187;28;20049;-79
2022/10/25 03:34:05;;;;;;;10.77;5.32;;;12.50;99.90;;;;;;4988135;28;20105;-79
2022/10/25 03:36:31;;;;;;;9.57;5.35;;;12.50;99.90;;;;;;5006427;28;20046;-79
2022/10/25 03:38:56;;;;;;;12.95;4.85;;;12.40;99.90;;;;;;5006043;28;20052;-79
2022/10/25 03:41:22;;;;;;;17.30;6.30;;;12.40;99.90;;;;;;5006424;28;20037;-79
2022/10/25 03:43:47;;;;;;;15.13;6.03;;;12.40;99.90;;;;;;5005839;28;20045;-79
2022/10/25 03:46:13;;;;;;;19.17;5.47;;;12.40;99.90;;;;;;5006316;28;20052;-80
2022/10/25 03:48:39;;;;;;;14.23;6.20;;;12.40;99.90;;;;;;4988777;28;20563;-79
2022/10/25 03:51:04;;;;;;;9.90;5.32;;;12.40;99.90;;;;;;4988473;28;20054;-79
2022/10/25 03:53:31;;;;;;;15.93;5.53;;;12.40;99.90;;;;;;5006255;28;20084;-79
2022/10/25 03:55:56;;;;;;;5.63;4.95;;;12.40;99.90;;;;;;5005857;28;20053;-79
2022/10/25 03:58:22;;;;;;;10.88;5.95;;;12.40;99.90;;;;;;4987835;28;20050;-79
2022/10/25 04:00:48;;;;;;;12.73;5.72;;;12.40;99.90;;;;;;5006745;28;20085;-80
2022/10/25 04:03:13;;;;;;;11.50;5.15;;;12.30;99.90;;;;;;5005863;28;20057;-79
2022/10/25 04:05:39;;;;;;;15.25;5.55;;;12.30;99.90;;;;;;5006268;28;20081;-79
2022/10/25 04:08:05;;;;;;;6.85;4.70;;;12.30;99.90;;;;;;5005726;28;20096;-79
2022/10/25 04:10:30;;;;;;;11.57;4.57;;;12.30;99.90;;;;;;5006083;28;20085;-79
2022/10/25 04:12:56;;;;;;;10.25;4.57;;;12.30;99.90;;;;;;5005850;28;20088;-79
2022/10/25 04:15:23;;;;;;;11.82;4.78;;;12.30;99.90;;;;;;5005305;28;20038;-79
2022/10/25 04:17:49;;;;;;;14.45;4.90;;;12.30;99.90;;;;;;5006380;28;20536;-80
2022/10/25 04:20:15;;;;;;;10.23;4.40;;;12.30;99.90;;;;;;4988857;28;20133;-79
2022/10/25 04:22:41;;;;;;;11.18;4.88;;;12.30;99.90;;;;;;4988206;28;20133;-80
2022/10/25 04:25:07;;;;;;;13.55;5.18;;;12.30;99.90;;;;;;5005530;28;20088;-79
2022/10/25 04:27:32;;;;;;;6.47;3.70;;;12.20;99.90;;;;;;4988465;28;20373;-79
2022/10/25 04:29:58;;;;;;;16.23;3.85;;;12.30;99.90;;;;;;5004790;28;20049;-80
2022/10/25 04:32:23;;;;;;;8.88;3.55;;;12.20;99.90;;;;;;5005853;28;20045;-78
2022/10/25 04:34:49;;;;;;;11.90;4.18;;;12.30;99.90;;;;;;5006195;28;20045;-80
2022/10/25 04:37:15;;;;;;;14.15;3.65;;;12.20;99.90;;;;;;4988934;28;20088;-79
2022/10/25 04:39:40;;;;;;;6.35;3.47;;;12.20;99.90;;;;;;5005653;28;20042;-78
2022/10/25 04:42:06;;;;;;;9.55;4.18;;;12.20;99.90;;;;;;5005325;28;20403;-79
2022/10/25 04:44:32;;;;;;;16.48;3.28;;;12.20;99.90;;;;;;4986724;28;20108;-80
2022/10/25 04:46:57;;;;;;;7.28;2.88;;;12.20;99.90;;;;;;5008932;28;20044;-78
2022/10/25 04:49:23;;;;;;;5.72;3.47;;;12.20;99.90;;;;;;5009681;28;20396;-80
2022/10/25 04:51:48;;;;;;;9.65;4.53;;;12.10;99.90;;;;;;5009837;28;20100;-80
2022/10/25 04:54:14;;;;;;;7.63;3.47;;;12.10;99.90;;;;;;5009340;28;20078;-80
2022/10/25 04:56:40;;;;;;;17.50;3.75;;;12.20;99.90;;;;;;5009535;28;20050;-79
2022/10/25 04:59:05;;;;;;;13.75;2.83;;;12.20;99.90;;;;;;4990450;28;20038;-79
2022/10/25 05:01:31;;;;;;;10.95;3.67;;;12.20;99.90;;;;;;5009364;28;20042;-79
2022/10/25 05:03:56;;;;;;;6.57;3.88;;;12.20;99.90;;;;;;5008911;28;20120;-79
2022/10/25 05:06:25;;;;;;;13.48;4.57;;;12.20;99.90;;;;;;5009392;28;20038;-79
2022/10/25 05:08:52;;;;;;;11.40;4.45;;;12.20;99.90;;;;;;4990527;28;20034;-79
2022/10/25 05:11:21;;;;;;;5.57;2.28;;;12.20;99.90;;;;;;5008580;28;20587;-82
2022/10/25 05:13:47;;;;;;;9.77;3.67;;;12.20;99.90;;;;;;5010729;28;20049;-83
2022/10/25 05:16:22;;;;;;;7.80;3.40;;;12.20;99.90;;;;;;4988584;28;20038;-87
2022/10/25 05:18:54;;;;;;;12.25;3.30;;;12.20;99.90;;;;;;4991535;28;20129;-80
2022/10/25 05:21:21;;;;;;;10.90;3.90;;;12.20;99.90;;;;;;4990522;28;20120;-78
2022/10/25 05:23:46;;;;;;;4.13;3.42;;;12.20;99.90;;;;;;5006622;28;20068;-79
2022/10/25 05:26:18;;;;;;;7.38;3.30;;;12.20;99.90;;;;;;5008616;28;20037;-77
2022/10/25 05:28:45;;;;;;;7.00;3.20;;;12.10;99.90;;;;;;4997221;28;20042;-79
2022/10/25 05:31:16;;;;;;;4.70;3.35;;;12.20;99.90;;;;;;4989260;28;20046;-78
2022/10/25 05:33:45;;;;;;;7.43;3.88;;;12.10;99.90;;;;;;4992619;28;20408;-79
2022/10/25 05:36:12;;;;;;;13.15;3.30;;;12.10;99.90;;;;;;5020204;28;20042;-80
2022/10/25 05:38:38;;;;;;;9.02;3.13;;;12.10;99.90;;;;;;4988395;28;20092;-79
2022/10/25 05:41:05;;;;;;;10.80;3.75;;;12.10;99.90;;;;;;4990436;28;20051;-79
2022/10/25 05:43:31;;;;;;;3.80;2.78;;;12.20;99.90;;;;;;4992569;28;20084;-80
2022/10/25 05:46:11;;;;;;;10.10;3.30;;;12.10;99.90;;;;;;4990509;28;20050;-80
2022/10/25 05:48:38;;;;;;;14.02;3.38;;;12.10;99.90;;;;;;5013085;28;20033;-79
2022/10/25 05:51:13;;;;;;;8.32;4.07;;;12.10;99.90;;;;;;5006356;28;20039;-79
2022/10/25 05:53:47;;;;;;;8.30;3.75;;;12.10;99.90;;;;;;5016082;28;20041;-79
2022/10/25 05:56:13;;;;;;;7.20;3.60;;;12.10;99.90;;;;;;5007716;28;20084;-82
2022/10/25 05:58:40;;;;;;;6.10;3.28;;;12.10;99.90;;;;;;5006633;28;20050;-81
2022/10/25 06:01:07;;;;;;;8.77;3.90;;;12.10;99.90;;;;;;5010716;28;20444;-81
2022/10/25 06:03:33;;;;;;;14.43;4.20;;;12.10;99.90;;;;;;5008438;28;20081;-79
2022/10/25 06:06:01;;;;;;;16.40;4.13;;;12.10;99.90;;;;;;5007651;28;20247;-78
2022/10/25 06:08:27;;;;;;;7.20;3.55;;;12.10;99.90;;;;;;5008755;28;20530;-86
2022/10/25 06:10:52;;;;;;;11.60;4.72;;;12.00;99.90;;;;;;5007754;28;20096;-79
2022/10/25 06:13:18;;;;;;;10.43;4.15;;;12.10;99.90;;;;;;5009405;28;20444;-78
2022/10/25 06:15:43;;;;;;;12.82;4.40;;;12.00;99.90;;;;;;5024759;28;20045;-77
2022/10/25 06:18:09;;;;;;;13.38;4.85;;;12.00;99.90;;;;;;5018767;28;20049;-78
2022/10/25 06:20:34;;;;;;;14.50;5.40;;;12.00;99.90;;;;;;5018797;28;20057;-77
2022/10/25 06:23:00;;;;;;;11.02;4.75;;;12.00;99.90;;;;;;4974027;28;20048;-76
2022/10/25 06:25:26;;;;;;;7.88;3.97;;;12.00;99.90;;;;;;5014886;28;20056;-77
2022/10/25 06:27:51;;;;;;;5.18;3.08;;;12.00;99.90;;;;;;5006856;28;20042;-76
2022/10/25 06:30:17;;;;;;;14.38;4.50;;;11.90;99.90;;;;;;4993005;28;20042;-76
2022/10/25 06:32:42;;;;;;;5.90;4.30;;;12.00;99.90;;;;;;5022333;28;20488;-76
2022/10/25 06:35:08;;;;;;;9.60;4.18;;;12.00;99.90;;;;;;5007284;28;20458;-76
2022/10/25 06:37:33;;;;;;;8.50;3.60;;;12.00;99.90;;;;;;5007150;28;20053;-77
2022/10/25 06:39:59;;;;;;;9.27;3.65;;;12.00;99.90;;;;;;4990403;28;20129;-76
2022/10/25 06:42:24;;;;;;;12.43;3.53;;;11.90;99.90;;;;;;5008851;28;20045;-77
2022/10/25 06:44:50;;;;;;;7.90;3.55;;;11.90;99.90;;;;;;5025485;28;20075;-77
2022/10/25 06:47:15;;;;;;;4.68;2.85;;;11.90;99.90;;;;;;5022319;28;20523;-77
2022/10/25 06:49:41;;;;;;;7.57;3.80;;;11.90;99.90;;;;;;5011282;28;20037;-77
2022/10/25 06:52:07;;;;;;;4.95;3.55;;;12.00;99.90;;;;;;5008506;28;20052;-77
2022/10/25 06:54:32;;;;;;;10.90;3.60;;;11.90;99.90;;;;;;5020385;28;20117;-77
2022/10/25 06:56:58;;;;;;;4.10;3.53;;;11.90;99.90;;;;;;5005368;28;20045;-76
2022/10/25 06:59:24;;;;;;;9.30;3.72;;;11.90;99.90;;;;;;4997231;28;20341;-77
2022/10/25 07:01:49;;;;;;;12.57;3.55;;;11.90;99.90;;;;;;5006445;28;20125;-77
2022/10/25 07:04:15;;;;;;;14.68;4.32;;;11.90;99.90;;;;;;5006676;28;20049;-76
2022/10/25 07:06:41;;;;;;;9.32;4.30;;;11.90;99.90;;;;;;5006929;28;20034;-79
2022/10/25 07:09:11;;;;;;;6.30;3.60;;;11.90;99.90;;;;;;4987123;28;20081;-77
2022/10/25 07:11:37;;;;;;;14.35;4.78;;;11.90;99.90;;;;;;5006234;28;20046;-76
2022/10/25 07:14:03;;;;;;;12.60;5.18;;;12.00;99.90;;;;;;4997707;28;20127;-76
2022/10/25 07:16:29;;;;;;;6.00;4.57;;;11.90;99.90;;;;;;5010145;28;20480;-76
2022/10/25 07:18:58;;;;;;;10.10;4.32;;;12.00;99.90;;;;;;5006015;28;20400;-76
2022/10/25 07:21:24;;;;;;;9.45;4.10;;;12.00;99.90;;;;;;5006212;28;20046;-76
2022/10/25 07:23:50;;;;;;;5.15;3.22;;;12.00;99.90;;;;;;5006935;28;20417;-76
2022/10/25 07:26:18;;;;;;;8.55;4.25;;;12.00;99.90;;;;;;4973811;28;20050;-76
2022/10/25 07:28:46;;;;;;;10.05;3.90;;;12.00;99.90;;;;;;4985509;28;20432;-76
2022/10/25 07:31:20;;;;;;;14.25;4.47;;;12.00;99.90;;;;;;5004641;28;20561;-76
2022/10/25 07:33:47;;;;;;;6.40;3.88;;;12.00;99.90;;;;;;5019843;28;20074;-76
2022/10/25 07:36:13;;;;;;;13.55;4.53;;;12.10;99.90;;;;;;4988239;28;20046;-76
2022/10/25 07:38:39;;;;;;;12.60;4.45;;;12.10;99.90;;;;;;4988267;28;20684;-76
2022/10/25 07:41:05;;;;;;;11.88;4.70;;;12.10;99.90;;;;;;5005710;28;20099;-76
2022/10/25 07:43:30;;;;;;;5.65;3.47;;;12.10;99.90;;;;;;4987151;28;20085;-76
2022/10/25 07:45:56;;;;;;;12.30;5.18;;;12.10;99.90;;;;;;4997716;28;20053;-76
2022/10/25 07:48:22;;;;;;;10.77;4.22;;;12.10;99.90;;;;;;5018869;28;20254;-76
2022/10/25 07:50:48;;;;;;;8.77;4.82;;;12.20;99.90;;;;;;5007054;28;20090;-76
2022/10/25 07:53:13;;;;;;;18.02;5.55;;;12.20;99.90;;;;;;5006819;28;20489;-76
2022/10/25 07:55:39;;;;;;;7.80;4.25;;;12.20;99.90;;;;;;5025810;28;20695;-76
2022/10/25 07:58:08;;;;;;;6.70;4.38;;;12.20;99.90;;;;;;5024129;28;20510;-76
2022/10/25 08:00:35;;;;;;;6.78;4.32;;;12.30;99.90;;;;;;5023933;28;20041;-76
2022/10/25 08:03:00;;;;;;;8.75;4.20;;;12.30;99.90;;;;;;5024839;28;20033;-76
2022/10/25 08:05:26;;;;;;;13.30;4.93;;;12.40;99.90;;;;;;5025149;28;20045;-76
2022/10/25 08:07:52;;;;;;;15.45;5.05;;;12.40;99.90;;;;;;5007058;28;20045;-76
2022/10/25 08:10:20;;;;;;;11.82;5.22;;;12.40;99.90;;;;;;5015012;28;20042;-76
2022/10/25 08:12:47;;;;;;;6.57;4.03;;;12.50;99.90;;;;;;5005363;28;20389;-76
2022/10/25 08:15:13;;;;;;;9.70;4.15;;;12.50;99.90;;;;;;5024971;28;20064;-76
2022/10/25 08:17:38;;;;;;;19.00;4.75;;;12.50;99.90;;;;;;5025014;28;20038;-76
2022/10/25 08:20:04;;;;;;;8.10;4.30;;;12.60;99.90;;;;;;5017179;28;20430;-76
2022/10/25 08:22:30;;;;;;;10.25;4.65;;;12.60;99.90;;;;;;5009099;28;20390;-76
2022/10/25 08:24:55;;;;;;;8.05;4.65;;;12.60;99.90;;;;;;5024679;28;20034;-77
2022/10/25 08:27:21;;;;;;;17.20;4.72;;;12.70;99.90;;;;;;5009327;28;20554;-77
2022/10/25 08:29:46;;;;;;;7.80;4.75;;;12.70;99.90;;;;;;5008719;28;20046;-77
2022/10/25 08:32:12;;;;;;;9.98;3.88;;;12.70;99.90;;;;;;5028025;28;20042;-77
2022/10/25 08:34:38;;;;;;;7.07;4.13;;;12.70;99.90;;;;;;5010863;28;20038;-77
2022/10/25 08:37:04;;;;;;;4.18;3.20;;;12.80;99.90;;;;;;5008645;28;20045;-77
2022/10/25 08:39:29;;;;;;;15.95;6.03;;;12.80;99.90;;;;;;5009030;28;20057;-77
2022/10/25 08:41:57;;;;;;;10.70;4.25;;;12.90;99.90;;;;;;5009174;28;20117;-77
2022/10/25 08:44:40;;;;;;;6.75;3.25;;;12.90;99.90;;;;;;5011023;28;20053;-77
2022/10/25 08:47:28;;;;;;;10.20;3.50;;;12.90;99.90;;;;;;5015268;28;20054;-77
2022/10/25 08:50:04;;;;;;;11.95;3.83;;;13.00;99.90;;;;;;5028783;28;20072;-77
2022/10/25 08:52:33;;;;;;;10.70;2.83;;;13.00;99.90;;;;;;5010860;28;20053;-77
2022/10/25 08:55:02;;;;;;;3.70;2.92;;;13.00;99.90;;;;;;5028441;28;20045;-77
2022/10/25 08:57:31;;;;;;;8.13;3.75;;;13.10;99.90;;;;;;5018195;28;20465;-77
2022/10/25 09:00:09;;;;;;;10.98;3.20;;;13.10;99.90;;;;;;4991140;28;20046;-77
2022/10/25 09:02:51;;;;;;;12.57;3.33;;;13.10;99.90;;;;;;5009993;28;20095;-77
2022/10/25 09:05:35;;;;;;;7.78;2.40;;;13.10;99.90;;;;;;5009074;28;20046;-76
2022/10/25 09:08:12;;;;;;;9.95;3.10;;;13.20;99.90;;;;;;5008457;28;20555;-77
2022/10/25 09:11:15;;;;;;;10.57;3.75;;;13.20;99.90;;;;;;5008510;28;20546;-77
2022/10/25 09:14:20;;;;;;;8.57;3.40;;;13.30;99.90;;;;;;5002394;28;20054;-76
2022/10/25 09:17:11;;;;;;;7.45;3.13;;;13.30;99.90;;;;;;4947067;28;20369;-77
2022/10/25 09:19:59;;;;;;;8.05;3.35;;;13.40;99.90;;;;;;5010292;28;20060;-76
2022/10/25 09:22:30;;;;;;;7.90;3.70;;;13.40;99.90;;;;;;5003709;28;20057;-76
2022/10/25 09:25:24;;;;;;;8.25;3.17;;;13.40;99.90;;;;;;5003521;28;20495;-77
2022/10/25 09:27:57;;;;;;;6.50;2.60;;;13.50;99.90;;;;;;4970222;28;20116;-77
2022/10/25 09:30:23;;;;;;;12.30;3.65;;;13.50;99.90;;;;;;5017673;28;20044;-77
2022/10/25 09:33:00;;;;;;;12.10;3.25;;;13.60;99.90;;;;;;5009456;28;20049;-77
2022/10/25 09:36:07;;;;;;;10.63;3.20;;;13.60;99.90;;;;;;5027766;28;20049;-76
2022/10/25 09:38:45;;;;;;;3.20;1.98;;;13.60;99.90;;;;;;4947117;29;20045;-77
2022/10/25 09:41:18;;;;;;;8.20;2.40;;;13.70;99.90;;;;;;4946998;29;20047;-77
2022/10/25 09:44:05;;;;;;;7.70;3.08;;;13.70;99.90;;;;;;4977084;28;20054;-77
2022/10/25 09:46:58;;;;;;;12.02;2.72;;;13.80;99.90;;;;;;5008075;28;20042;-77
2022/10/25 09:49:59;;;;;;;8.48;3.20;;;13.80;99.90;;;;;;5027148;28;20042;-77
2022/10/25 09:52:39;;;;;;;2.85;1.77;;;13.80;99.90;;;;;;5008864;28;20068;-77
2022/10/25 09:55:10;;;;;;;8.07;2.58;;;13.70;99.90;;;;;;5027363;28;20400;-77
2022/10/25 09:57:36;;;;;;;10.35;2.60;;;13.80;99.90;;;;;;5026358;28;20045;-77
2022/10/25 10:00:03;;;;;;;20.77;2.17;;;13.70;99.90;;;;;;5027068;28;20103;-77
2022/10/25 10:02:29;;;;;;;10.80;2.92;;;13.80;99.90;;;;;;5016404;28;20526;-77
2022/10/25 10:04:54;;;;;;;9.15;2.45;;;13.80;99.90;;;;;;5007518;28;20046;-76
2022/10/25 10:07:31;;;;;;;8.50;2.40;;;13.90;99.90;;;;;;5013135;28;20045;-81
2022/10/25 10:10:01;;;;;;;9.07;2.33;;;13.90;99.90;;;;;;5001172;28;20570;-79
2022/10/25 10:12:42;;;;;;;3.63;2.30;;;14.00;99.90;;;;;;5001190;28;20145;-83
2022/10/25 10:15:16;;;;;;;6.22;1.77;;;14.00;99.90;;;;;;5012964;28;20045;-86
2022/10/25 10:17:42;;;;;;;9.65;2.22;;;14.00;99.90;;;;;;4994841;28;20129;-82
2022/10/25 10:20:16;;;;;;;6.75;2.22;;;14.10;99.90;;;;;;4989719;28;20604;-87
2022/10/25 10:22:51;;;;;;;8.25;3.05;;;14.10;99.90;;;;;;5010805;28;20042;-80
2022/10/25 10:25:26;;;;;;;8.60;2.35;;;14.10;99.90;;;;;;4983058;28;20073;-81
2022/10/25 10:27:57;;;;;;;8.82;2.80;;;14.20;99.90;;;;;;4981826;28;20038;-79
2022/10/25 10:30:28;;;;;;;6.25;2.78;;;14.20;99.90;;;;;;5008876;28;20057;-79
2022/10/25 10:32:58;;;;;;;6.07;2.15;;;14.20;99.90;;;;;;5026344;28;20510;-79
2022/10/25 10:35:28;;;;;;;21.48;3.50;;;14.20;99.90;;;;;;5008931;28;20486;-79
2022/10/25 10:38:25;;;;;;;4.97;3.53;;;14.20;99.90;;;;;;5009754;28;20499;-82
2022/10/25 10:41:22;;;;;;;3.90;2.50;;;14.30;99.90;;;;;;5007080;28;20397;-81
2022/10/25 10:43:48;;;;;;;5.07;2.75;;;14.30;99.90;;;;;;4988774;28;20056;-80
2022/10/25 10:46:16;;;;;;;16.05;3.78;;;14.30;99.90;;;;;;4991436;28;20042;-84
2022/10/25 10:48:44;;;;;;;13.98;3.92;;;14.30;99.90;;;;;;5026856;28;20095;-80
2022/10/25 10:51:19;;;;;;;6.38;2.53;;;14.30;99.90;;;;;;5008751;28;20071;-81
2022/10/25 10:53:45;;;;;;;5.85;2.97;;;14.30;99.90;;;;;;5009341;28;20042;-82
2022/10/25 10:56:21;;;;;;;13.30;3.58;;;14.30;99.90;;;;;;5010844;28;20059;-83
2022/10/25 10:58:50;;;;;;;12.40;3.92;;;14.30;99.90;;;;;;5025630;28;20353;-82
2022/10/25 11:01:31;;;;;;;5.85;3.20;;;14.20;99.90;;;;;;5026881;28;20037;-81
2022/10/25 11:03:58;;;;;;;10.97;3.63;;;14.20;99.90;;;;;;5022585;28;20049;-78
2022/10/25 11:06:28;;;;;;;6.05;3.20;;;14.20;99.90;;;;;;4992603;28;20329;-80
2022/10/25 11:09:15;;;;;;;5.30;3.58;;;14.20;99.90;;;;;;5005835;28;20390;-78
2022/10/25 11:11:42;;;;;;;8.70;4.30;;;14.30;99.90;;;;;;5006385;28;20041;-79
2022/10/25 11:14:16;;;;;;;3.90;2.10;;;14.30;99.90;;;;;;5005123;28;20492;-78
2022/10/25 11:16:45;;;;;;;11.98;4.22;;;14.40;99.90;;;;;;5023390;28;20052;-78
2022/10/25 11:19:22;;;;;;;6.05;2.03;;;14.40;99.90;;;;;;5006427;28;20038;-79
2022/10/25 11:22:24;;;;;;;6.95;2.00;;;14.50;99.90;;;;;;4988945;28;20050;-78
2022/10/25 11:25:02;;;;;;;3.08;1.80;;;14.50;99.90;;;;;;4985277;28;20038;-79
2022/10/25 11:28:05;;;;;;;6.13;1.95;;;14.60;99.90;;;;;;4995228;28;20144;-78
2022/10/25 11:31:12;;;;;;;3.20;1.33;;;14.60;99.90;;;;;;5018113;28;20381;-78
2022/10/25 11:34:05;;;;;;;4.22;1.70;;;14.60;99.90;;;;;;4926007;29;20048;-78
2022/10/25 11:36:46;;;;;;;3.05;1.58;;;14.70;99.90;;;;;;5006049;28;20050;-78
2022/10/25 11:39:24;;;;;;;4.97;2.17;;;14.70;99.90;;;;;;5024016;28;20041;-78
2022/10/25 11:41:54;;;;;;;12.13;2.47;;;14.80;99.90;;;;;;5025319;28;20033;-78
2022/10/25 11:44:25;;;;;;;3.50;2.10;;;14.80;99.90;;;;;;5024948;28;20091;-78
2022/10/25 11:47:23;;;;;;;4.65;2.08;;;14.80;99.90;;;;;;5025200;28;20037;-80
2022/10/25 11:49:48;;;;;;;4.20;1.95;;;14.80;99.90;;;;;;5022707;28;20436;-79
2022/10/25 11:52:35;;;;;;;6.07;2.38;;;14.80;99.90;;;;;;5005779;28;20046;-78
2022/10/25 11:55:12;;;;;;;5.80;1.50;;;14.90;99.90;;;;;;5004739;28;20049;-78
2022/10/25 11:58:05;;;;;;;7.43;1.60;;;14.90;99.90;;;;;;5009518;28;20292;-79
2022/10/25 12:00:44;;;;;;;;;;;14.90;99.90;;;;;;5008240;28;20049;-78
2022/10/25 12:03:19;;;;;;;8.18;1.65;;;14.90;99.90;;;;;;5007307;28;19976;-78
2022/10/25 12:06:18;;;;;;;6.18;2.10;;;14.90;99.90;;;;;;5008330;28;20056;-78
2022/10/25 12:09:13;;;;;;;6.03;1.83;;;15.00;99.90;;;;;;4965094;28;20058;-78
2022/10/25 12:11:47;;;;;;;9.77;2.85;;;14.90;99.90;;;;;;5002826;28;20407;-78
2022/10/25 12:14:22;;;;;;;4.18;2.00;;;14.90;99.90;;;;;;5004897;28;20277;-78
2022/10/25 12:16:49;;;;;;;6.82;2.92;;;14.90;99.90;;;;;;5004313;28;20377;-78
2022/10/25 12:19:26;;;;;;;7.90;3.95;;;14.90;99.90;;;;;;5004212;28;20046;-78
2022/10/25 12:22:02;;;;;;;10.13;4.00;;;15.00;99.90;;;;;;4999822;28;20125;-78
2022/10/25 12:24:40;;;;;;;8.82;3.83;;;15.00;99.90;;;;;;4985372;28;20039;-78
2022/10/25 12:27:08;;;;;;;5.80;3.45;;;15.10;99.90;;;;;;4965342;28;20078;-78
2022/10/25 12:29:46;;;;;;;6.68;4.07;;;15.10;99.90;;;;;;4968138;28;20461;-79
2022/10/25 12:32:41;;;;;;;6.82;4.57;;;15.10;99.90;;;;;;4985739;28;20116;-79
2022/10/25 12:35:21;;;;;;;7.13;4.10;;;15.10;99.90;;;;;;4982044;28;20481;-79
2022/10/25 12:37:53;;;;;;;7.28;3.47;;;15.20;99.90;;;;;;4988647;28;20046;-79
2022/10/25 12:40:21;;;;;;;5.32;3.13;;;15.10;99.90;;;;;;4986220;28;20129;-79
2022/10/25 12:43:15;;;;;;;13.27;3.17;;;15.10;99.90;;;;;;4988478;28;20058;-80
2022/10/25 12:45:52;;;;;;;2.58;1.80;;;15.10;99.90;;;;;;4964408;28;20051;-82
2022/10/25 12:48:29;;;;;;;10.18;1.80;;;15.10;99.90;;;;;;4975671;28;20406;-80
2022/10/25 12:51:09;;;;;;;6.78;1.77;;;15.20;99.90;;;;;;4985296;28;20038;-79
2022/10/25 12:54:00;;;;;;;9.65;1.65;;;15.10;99.90;;;;;;4982137;28;20497;-78
2022/10/25 12:56:39;;;;;;;1.67;1.20;;;15.10;99.90;;;;;;4985781;28;20050;-79
2022/10/25 12:59:39;;;;;;;2.75;1.63;;;15.10;99.90;;;;;;4983271;28;20436;-79
2022/10/25 13:02:20;;;;;;;3.00;1.60;;;15.20;99.90;;;;;;4986595;28;20046;-79
2022/10/25 13:05:13;;;;;;;5.05;2.17;;;15.30;99.90;;;;;;4982969;28;20061;-80